Strona główna
METAR-TAF:

METAR-TAF

Lotnisko :

Port lotniczy Mysore

Mysore, Indie

Szerokość geograficzna: 12-13-48N, Długość geograficzna: 76-39-21E, wysokość: 715 m

Aktualna obserwacja pogody

Raport powstał 6 godziny i 2 minut temu, godzina 14:30 UTC
Cisza
Temperatura 28°C
Wilgotność 66%
Ciśnienie 1012 hPa
Widzialność: 8000 m
Mało chmury na wysokości 2500 ft, Cumulonimbus.

METAR: VOMY 301430Z 00000KT 8000 FEW025CB 28/21 Q1012

czas: 02:02 (20:32 UTC)

Prognoza

Raport powstał 12 godziny i 32 minut temu, godzina 08:00 UTC
Prognoza ważna od 30 godzina 09 UTC do 30 godzina 18 UTC
Wiatr 10 kt od zachód
Widzialność: 8000 m
Rozproszone chmury na wysokości 1500 ft
Przejściowo
od 30 godzina 09 UTC do 30 godzina 15 UTC
Rozproszone chmury na wysokości 1200 ft
Rozproszone chmury na wysokości 2000 ft
Mało chmury na wysokości 2500 ft, Cumulonimbus.

TAF: VOMY 300800Z 3009/3018 27010KT 8000 SCT015 TEMPO 3009/3015 SCT012 SCT020 FEW025CB

Obserwacja i prognoza pogody dla ponad 4000 lotnisk (raport METAR i TAF).

Dostępne stacje oznaczono żółtymi i czerwonymi punktami na mapie.

Najedź kursorem aby zobaczyć nazwę stacji.

Kliknij aby zobaczyć obserwacje i prognozy pogody.

Aby zmienić mapę: kliknij na zielony przycisk z czarnym krzyżykiem, aby powiększyć; na zielony przycisk z myślnikiem, aby pomniejszyć; na zielone strzałki, aby przejść do map sąsiednich.


METAR-TAF: